createdAt,value
2019-04-01T00:04:41.976Z,3.82
2019-04-01T00:07:10.893Z,3.79
2019-04-01T00:09:40.847Z,3.64
2019-04-01T00:12:10.007Z,3.67
2019-04-01T00:14:38.684Z,3.66
2019-04-01T00:17:07.386Z,3.52
2019-04-01T00:19:36.397Z,3.61
2019-04-01T00:22:05.306Z,3.51
2019-04-01T00:24:33.991Z,3.53
2019-04-01T00:27:02.905Z,3.45
2019-04-01T00:29:31.585Z,3.32
2019-04-01T00:32:00.583Z,3.25
2019-04-01T00:34:29.294Z,3.44
2019-04-01T00:36:57.963Z,3.49
2019-04-01T00:39:26.633Z,3.45
2019-04-01T00:42:04.934Z,3.58
2019-04-01T00:44:54.580Z,3.55
2019-04-01T00:47:23.246Z,3.46
2019-04-01T00:49:52.011Z,3.29
2019-04-01T00:52:22.880Z,3.23
2019-04-01T00:54:51.643Z,3.42
2019-04-01T00:57:20.556Z,3.37
2019-04-01T00:59:49.806Z,3.40
2019-04-01T01:02:18.475Z,3.33
2019-04-01T01:04:47.181Z,3.24
2019-04-01T01:07:15.849Z,3.16
2019-04-01T01:09:46.057Z,3.24
2019-04-01T01:12:14.754Z,3.36
2019-04-01T01:14:43.540Z,3.29
2019-04-01T01:17:12.229Z,3.24
2019-04-01T01:19:40.932Z,3.10
2019-04-01T01:22:09.606Z,2.81
2019-04-01T01:24:40.061Z,3.22
2019-04-01T01:27:08.751Z,3.19
2019-04-01T01:29:37.423Z,3.13
2019-04-01T01:32:06.433Z,3.11
2019-04-01T01:34:35.385Z,3.12
2019-04-01T01:37:04.129Z,3.11
2019-04-01T01:39:32.817Z,3.11
2019-04-01T01:42:02.047Z,2.99
2019-04-01T01:44:30.733Z,2.99
2019-04-01T01:46:59.700Z,2.98
2019-04-01T01:49:28.377Z,2.98
2019-04-01T01:51:57.325Z,2.90
2019-04-01T01:54:26.261Z,2.91
2019-04-01T01:56:55.295Z,2.99
2019-04-01T01:59:23.970Z,2.92
2019-04-01T02:01:52.661Z,2.91
2019-04-01T02:04:21.330Z,2.92
2019-04-01T02:06:50.021Z,3.01
2019-04-01T02:09:18.949Z,3.01
2019-04-01T02:11:47.641Z,2.99
2019-04-01T02:14:16.551Z,2.99
2019-04-01T02:16:45.476Z,2.90
2019-04-01T02:19:14.413Z,2.82
2019-04-01T02:21:43.787Z,2.91
2019-04-01T02:24:12.726Z,2.85
2019-04-01T02:26:41.623Z,2.97
2019-04-01T02:29:10.291Z,3.05
2019-04-01T02:31:39.328Z,3.05
2019-04-01T02:34:08.264Z,2.88
2019-04-01T02:36:37.043Z,2.87
2019-04-01T02:39:11.399Z,2.82
2019-04-01T02:41:40.073Z,2.71
2019-04-01T02:44:10.384Z,2.79
2019-04-01T02:46:39.362Z,2.84
2019-04-01T02:49:08.121Z,2.76
2019-04-01T02:51:36.797Z,2.66
2019-04-01T02:54:05.779Z,2.70
2019-04-01T02:56:35.101Z,2.82
2019-04-01T02:59:03.802Z,2.84
2019-04-01T03:01:32.554Z,2.97
2019-04-01T03:04:01.280Z,2.84
2019-04-01T03:06:30.292Z,2.86
2019-04-01T03:08:59.197Z,2.91
2019-04-01T03:11:28.347Z,2.89
2019-04-01T03:13:57.032Z,2.84
2019-04-01T03:16:25.762Z,2.77
2019-04-01T03:18:54.921Z,2.70
2019-04-01T03:21:23.596Z,2.55
2019-04-01T03:23:52.283Z,2.58
2019-04-01T03:26:21.018Z,2.59
2019-04-01T03:28:49.955Z,2.58
2019-04-01T03:31:18.887Z,2.53
2019-04-01T03:33:47.571Z,2.50
2019-04-01T03:36:16.755Z,2.47
2019-04-01T03:38:45.668Z,2.55
2019-04-01T03:41:14.597Z,2.61
2019-04-01T03:43:43.517Z,2.72
2019-04-01T03:46:12.440Z,2.60
2019-04-01T03:48:41.441Z,2.62
2019-04-01T03:51:10.195Z,2.64
2019-04-01T03:53:38.918Z,2.52
2019-04-01T03:56:07.662Z,2.54
2019-04-01T03:58:36.334Z,2.58
2019-04-01T04:01:05.258Z,2.63
2019-04-01T04:03:33.975Z,2.64
2019-04-01T04:06:02.657Z,2.49
2019-04-01T04:08:31.336Z,2.45
2019-04-01T04:11:00.264Z,2.58
2019-04-01T04:13:28.938Z,2.44
2019-04-01T04:15:57.779Z,2.48
2019-04-01T04:18:29.077Z,2.54
2019-04-01T04:20:58.030Z,2.50
2019-04-01T04:23:26.662Z,2.47
2019-04-01T04:25:55.644Z,2.39
2019-04-01T04:28:24.565Z,2.45
2019-04-01T04:30:53.527Z,2.42
2019-04-01T04:33:22.214Z,2.48
2019-04-01T04:35:50.883Z,2.43
2019-04-01T04:38:20.819Z,2.49
2019-04-01T04:40:52.783Z,2.64
2019-04-01T04:43:29.412Z,2.60
2019-04-01T04:46:03.625Z,2.57
2019-04-01T04:48:33.347Z,2.56
2019-04-01T04:51:02.282Z,2.52
2019-04-01T04:53:31.207Z,2.50
2019-04-01T04:55:59.893Z,2.31
2019-04-01T04:58:28.833Z,2.23
2019-04-01T05:00:57.748Z,2.08
2019-04-01T05:03:26.426Z,2.13
2019-04-01T05:05:55.189Z,2.12
2019-04-01T05:08:24.164Z,2.14
2019-04-01T05:10:52.823Z,2.11
2019-04-01T05:13:21.833Z,2.10
2019-04-01T05:15:50.559Z,2.16
2019-04-01T05:18:19.739Z,2.15
2019-04-01T05:20:48.715Z,2.14
2019-04-01T05:23:18.349Z,2.07
2019-04-01T05:25:48.470Z,2.15
2019-04-01T05:28:18.110Z,2.28
2019-04-01T05:30:48.813Z,2.20
2019-04-01T05:33:20.975Z,2.15
2019-04-01T05:35:49.893Z,2.24
2019-04-01T05:38:18.656Z,2.14
2019-04-01T05:40:47.329Z,2.16
2019-04-01T05:43:16.074Z,2.20
2019-04-01T05:45:47.703Z,2.20
2019-04-01T05:48:17.498Z,2.23
2019-04-01T05:50:46.467Z,2.26
2019-04-01T05:53:15.244Z,2.31
2019-04-01T05:55:43.956Z,2.57
2019-04-01T05:58:12.677Z,2.51
2019-04-01T06:00:48.453Z,2.73
2019-04-01T06:03:17.378Z,2.84
2019-04-01T06:05:46.544Z,2.71
2019-04-01T06:08:15.339Z,2.83
2019-04-01T06:10:44.155Z,2.86
2019-04-01T06:13:13.483Z,2.94
2019-04-01T06:15:42.301Z,2.90
2019-04-01T06:18:10.990Z,2.91
2019-04-01T06:20:39.842Z,3.12
2019-04-01T06:23:08.857Z,3.04
2019-04-01T06:25:37.537Z,3.06
2019-04-01T06:28:06.353Z,3.04
2019-04-01T06:30:35.079Z,3.08
2019-04-01T06:33:04.092Z,3.15
2019-04-01T06:35:33.322Z,3.29
2019-04-01T06:38:02.038Z,3.26
2019-04-01T06:40:30.982Z,3.36
2019-04-01T06:42:59.667Z,3.45
2019-04-01T06:45:28.339Z,3.50
2019-04-01T06:47:57.124Z,2.57
2019-04-01T06:50:25.825Z,3.77
2019-04-01T06:52:55.445Z,3.82
2019-04-01T06:55:24.260Z,3.88
2019-04-01T06:57:53.107Z,4.08
2019-04-01T07:00:23.563Z,4.07
2019-04-01T07:02:52.836Z,4.32
2019-04-01T07:05:21.578Z,4.24
2019-04-01T07:07:50.322Z,4.38
2019-04-01T07:10:19.067Z,4.34
2019-04-01T07:12:48.065Z,4.43
2019-04-01T07:15:16.904Z,4.31
2019-04-01T07:17:45.679Z,4.29
2019-04-01T07:20:14.987Z,4.44
2019-04-01T07:22:43.794Z,4.52
2019-04-01T07:25:12.542Z,4.79
2019-04-01T07:27:41.328Z,4.93
2019-04-01T07:30:11.160Z,5.03
2019-04-01T07:32:40.152Z,5.16
2019-04-01T07:35:09.336Z,5.19
2019-04-01T07:37:38.072Z,5.36
2019-04-01T07:40:08.378Z,5.37
2019-04-01T07:42:37.455Z,5.53
2019-04-01T07:45:06.538Z,5.46
2019-04-01T07:47:35.383Z,5.56
2019-04-01T07:50:04.783Z,5.84
2019-04-01T07:52:33.455Z,5.91
2019-04-01T07:55:02.209Z,6.05
2019-04-01T07:57:32.786Z,6.06
2019-04-01T08:00:01.956Z,6.14
2019-04-01T08:02:30.636Z,6.21
2019-04-01T08:04:59.825Z,6.32
2019-04-01T08:07:28.828Z,6.35
2019-04-01T08:09:57.602Z,6.42
2019-04-01T08:12:27.936Z,6.46
2019-04-01T08:14:57.168Z,6.42
2019-04-01T08:17:25.937Z,6.40
2019-04-01T08:19:55.294Z,6.70
2019-04-01T08:22:24.556Z,6.76
2019-04-01T08:24:54.027Z,6.80
2019-04-01T08:27:22.711Z,6.80
2019-04-01T08:29:51.726Z,6.92
2019-04-01T08:32:20.591Z,6.90
2019-04-01T08:34:51.555Z,7.03
2019-04-01T08:37:20.362Z,7.24
2019-04-01T08:39:49.306Z,7.23
2019-04-01T08:42:18.048Z,7.26
2019-04-01T08:44:46.888Z,7.39
2019-04-01T08:47:15.710Z,7.34
2019-04-01T08:49:44.541Z,7.40
2019-04-01T08:52:13.316Z,7.40
2019-04-01T08:54:42.485Z,7.42
2019-04-01T08:57:11.231Z,7.58
2019-04-01T08:59:40.006Z,7.73
2019-04-01T09:02:17.636Z,7.75
2019-04-01T09:04:39.551Z,7.62
2019-04-01T09:07:08.253Z,7.61
2019-04-01T09:09:38.718Z,7.68
2019-04-01T09:12:07.568Z,7.74
2019-04-01T09:14:37.286Z,7.83
2019-04-01T09:17:05.992Z,7.92
2019-04-01T09:19:34.833Z,7.84
2019-04-01T09:22:03.515Z,7.96
2019-04-01T09:24:32.464Z,8.03
2019-04-01T09:27:01.641Z,8.04
2019-04-01T09:29:30.639Z,8.15
2019-04-01T09:31:59.330Z,8.17
2019-04-01T09:34:29.633Z,8.30
2019-04-01T09:36:58.674Z,8.40
2019-04-01T09:39:27.577Z,8.55
2019-04-01T09:41:56.363Z,8.54
2019-04-01T09:44:36.747Z,8.53
2019-04-01T09:47:00.007Z,8.63
2019-04-01T09:49:31.368Z,8.75
2019-04-01T09:52:03.652Z,8.87
2019-04-01T09:54:30.784Z,9.05
2019-04-01T09:56:59.806Z,9.17
2019-04-01T09:59:28.491Z,9.31
2019-04-01T10:01:57.438Z,9.54
2019-04-01T10:04:28.301Z,9.54
2019-04-01T10:06:57.219Z,9.60
2019-04-01T10:09:25.956Z,9.48
2019-04-01T10:11:55.291Z,9.44
2019-04-01T10:14:23.972Z,9.44
2019-04-01T10:16:52.651Z,9.44
2019-04-01T10:19:21.339Z,9.29
2019-04-01T10:21:50.031Z,9.20
2019-04-01T10:24:18.977Z,9.28
2019-04-01T10:26:47.727Z,9.47
2019-04-01T10:29:17.190Z,9.63
2019-04-01T10:31:45.871Z,9.63
2019-04-01T10:34:14.541Z,9.68
2019-04-01T10:36:43.594Z,9.66
2019-04-01T10:39:12.513Z,9.74
2019-04-01T10:41:41.423Z,9.93
2019-04-01T10:44:10.072Z,9.96
2019-04-01T10:46:40.769Z,10.07
2019-04-01T10:49:09.504Z,10.29
2019-04-01T10:51:38.303Z,10.36
2019-04-01T10:54:07.614Z,10.63
2019-04-01T10:56:36.327Z,10.67
2019-04-01T10:59:05.100Z,10.73
2019-04-01T11:01:34.114Z,10.77
2019-04-01T11:04:03.093Z,10.88
2019-04-01T11:06:32.312Z,10.88
2019-04-01T11:09:01.062Z,10.94
2019-04-01T11:11:30.146Z,10.99
2019-04-01T11:13:58.826Z,11.31
2019-04-01T11:16:27.515Z,11.40
2019-04-01T11:18:58.127Z,11.55
2019-04-01T11:21:26.739Z,11.37
2019-04-01T11:23:55.429Z,11.25
2019-04-01T11:26:24.447Z,11.30
2019-04-01T11:28:53.205Z,11.35
2019-04-01T11:31:22.191Z,11.45
2019-04-01T11:33:50.879Z,11.36
2019-04-01T11:36:19.516Z,11.23
2019-04-01T11:38:48.554Z,11.31
2019-04-01T11:41:17.771Z,11.53
2019-04-01T11:43:46.792Z,11.67
2019-04-01T11:46:15.477Z,11.80
2019-04-01T11:48:44.210Z,11.89
2019-04-01T11:51:13.178Z,11.85
2019-04-01T11:53:41.934Z,11.91
2019-04-01T11:56:10.956Z,12.10
2019-04-01T11:58:40.267Z,12.25
2019-04-01T12:01:09.211Z,12.19
2019-04-01T12:03:37.898Z,12.22
2019-04-01T12:06:06.579Z,12.34
2019-04-01T12:08:35.663Z,12.23
2019-04-01T12:11:04.475Z,12.22
2019-04-01T12:13:33.439Z,12.21
2019-04-01T12:16:02.416Z,12.25
2019-04-01T12:18:31.251Z,12.53
2019-04-01T12:21:00.153Z,12.67
2019-04-01T12:23:29.169Z,12.78
2019-04-01T12:25:58.113Z,12.90
2019-04-01T12:28:26.812Z,12.91
2019-04-01T12:30:55.815Z,12.93
2019-04-01T12:33:26.335Z,13.03
2019-04-01T12:35:55.643Z,13.10
2019-04-01T12:38:24.318Z,13.12
2019-04-01T12:40:53.308Z,13.14
2019-04-01T12:43:23.709Z,13.12
2019-04-01T12:45:52.787Z,13.30
2019-04-01T12:48:21.558Z,13.06
2019-04-01T12:50:53.043Z,13.21
2019-04-01T12:53:21.804Z,13.26
2019-04-01T12:55:50.532Z,13.44
2019-04-01T12:58:20.655Z,13.07
2019-04-01T13:00:50.788Z,13.02
2019-04-01T13:03:20.243Z,13.03
2019-04-01T13:05:48.928Z,13.08
2019-04-01T13:08:17.917Z,13.27
2019-04-01T13:10:46.657Z,13.51
2019-04-01T13:13:15.972Z,13.55
2019-04-01T13:15:44.908Z,13.60
2019-04-01T13:18:13.846Z,13.71
2019-04-01T13:20:42.785Z,13.53
2019-04-01T13:23:11.471Z,13.62
2019-04-01T13:25:40.634Z,13.59
2019-04-01T13:28:09.792Z,13.49
2019-04-01T13:30:38.476Z,13.38
2019-04-01T13:33:07.182Z,13.45
2019-04-01T13:35:35.807Z,13.44
2019-04-01T13:38:04.490Z,13.38
2019-04-01T13:40:33.158Z,13.43
2019-04-01T13:43:04.633Z,13.69
2019-04-01T13:45:32.248Z,13.82
2019-04-01T13:48:01.430Z,13.94
2019-04-01T13:50:30.150Z,13.91
2019-04-01T13:52:58.812Z,13.55
2019-04-01T13:55:27.986Z,13.34
2019-04-01T13:57:56.950Z,13.21
2019-04-01T14:00:27.539Z,13.06
2019-04-01T14:02:56.038Z,13.11
2019-04-01T14:05:25.300Z,13.23
2019-04-01T14:07:53.997Z,13.40
2019-04-01T14:10:22.673Z,13.44
2019-04-01T14:12:51.589Z,13.55
2019-04-01T14:15:20.353Z,13.61
2019-04-01T14:17:49.261Z,13.69
2019-04-01T14:20:17.950Z,13.65
2019-04-01T14:22:46.695Z,13.68
2019-04-01T14:25:15.430Z,13.80
2019-04-01T14:27:44.357Z,13.89
2019-04-01T14:30:13.292Z,13.94
2019-04-01T14:32:42.452Z,13.77
2019-04-01T14:35:11.288Z,13.74
2019-04-01T14:37:40.309Z,13.82
2019-04-01T14:40:09.415Z,13.76
2019-04-01T14:42:39.611Z,13.74
2019-04-01T14:45:09.155Z,13.82
2019-04-01T14:47:55.563Z,13.86
2019-04-01T14:50:08.525Z,13.76
2019-04-01T14:52:37.273Z,13.85
2019-04-01T14:55:06.676Z,13.86
2019-04-01T14:57:35.606Z,13.76
2019-04-01T15:00:10.695Z,13.66
2019-04-01T15:02:39.507Z,13.60
2019-04-01T15:05:08.359Z,13.66
2019-04-01T15:07:37.129Z,13.68
2019-04-01T15:10:06.252Z,13.86
2019-04-01T15:12:34.998Z,13.76
2019-04-01T15:15:04.153Z,13.91
2019-04-01T15:17:36.672Z,13.82
2019-04-01T15:20:04.561Z,13.80
2019-04-01T15:22:33.556Z,13.84
2019-04-01T15:25:02.559Z,13.85
2019-04-01T15:27:31.546Z,13.70
2019-04-01T15:30:00.250Z,13.69
2019-04-01T15:32:28.937Z,13.77
2019-04-01T15:34:57.717Z,13.68
2019-04-01T15:37:32.040Z,13.60
2019-04-01T15:39:59.463Z,13.54
2019-04-01T15:42:28.153Z,13.69
2019-04-01T15:44:59.042Z,13.64
2019-04-01T15:47:27.829Z,13.74
2019-04-01T15:49:59.036Z,13.90
2019-04-01T15:52:28.877Z,13.82
2019-04-01T15:54:58.107Z,13.78
2019-04-01T15:57:27.547Z,13.77
2019-04-01T15:59:56.231Z,13.62
2019-04-01T16:02:27.829Z,13.49
2019-04-01T16:04:58.807Z,13.44
2019-04-01T16:07:28.957Z,13.42
2019-04-01T16:09:58.473Z,13.38
2019-04-01T16:12:27.434Z,13.36
2019-04-01T16:14:56.175Z,13.53
2019-04-01T16:17:24.897Z,13.45
2019-04-01T16:19:56.016Z,13.30
2019-04-01T16:22:24.754Z,13.31
2019-04-01T16:24:54.451Z,13.25
2019-04-01T16:27:23.112Z,13.33
2019-04-01T16:29:52.073Z,13.47
2019-04-01T16:32:20.943Z,13.64
2019-04-01T16:34:49.879Z,13.69
2019-04-01T16:37:18.816Z,13.81
2019-04-01T16:39:48.812Z,13.84
2019-04-01T16:42:17.468Z,13.92
2019-04-01T16:44:46.595Z,14.35
2019-04-01T16:47:15.383Z,14.67
2019-04-01T16:49:44.075Z,14.92
2019-04-01T16:52:15.447Z,15.04
2019-04-01T16:54:47.229Z,15.52
2019-04-01T16:57:16.184Z,15.28
2019-04-01T16:59:44.895Z,15.18
2019-04-01T17:02:18.194Z,15.28
2019-04-01T17:04:46.118Z,15.07
2019-04-01T17:07:14.893Z,14.97
2019-04-01T17:09:43.842Z,14.86
2019-04-01T17:12:13.107Z,15.02
2019-04-01T17:14:42.274Z,15.31
2019-04-01T17:17:11.356Z,15.21
2019-04-01T17:19:40.268Z,14.87
2019-04-01T17:22:11.383Z,14.40
2019-04-01T17:24:39.647Z,14.13
2019-04-01T17:27:12.040Z,13.97
2019-04-01T17:29:42.420Z,13.22
2019-04-01T17:32:11.493Z,12.74
2019-04-01T17:34:40.505Z,12.33
2019-04-01T17:37:09.595Z,11.99
2019-04-01T17:39:38.324Z,11.78
2019-04-01T17:42:07.464Z,11.35
2019-04-01T17:44:36.232Z,11.17
2019-04-01T17:47:06.192Z,10.67
2019-04-01T17:49:35.222Z,10.51
2019-04-01T17:52:04.585Z,10.43
2019-04-01T17:54:33.534Z,10.35
2019-04-01T17:57:02.294Z,10.41
2019-04-01T17:59:31.323Z,10.22
2019-04-01T18:02:00.353Z,10.14
2019-04-01T18:04:30.941Z,10.01
2019-04-01T18:06:59.989Z,9.89
2019-04-01T18:09:28.813Z,9.55
2019-04-01T18:11:57.817Z,9.43
2019-04-01T18:14:26.578Z,9.43
2019-04-01T18:16:55.255Z,9.25
2019-04-01T18:19:23.918Z,9.20
2019-04-01T18:21:52.721Z,9.13
2019-04-01T18:24:22.261Z,9.00
2019-04-01T18:26:54.061Z,8.88
2019-04-01T18:29:22.755Z,8.81
2019-04-01T18:31:51.779Z,8.76
2019-04-01T18:34:22.983Z,8.74
2019-04-01T18:36:52.212Z,8.67
2019-04-01T18:39:21.230Z,8.85
2019-04-01T18:41:49.989Z,8.91
2019-04-01T18:44:18.967Z,8.84
2019-04-01T18:46:47.639Z,8.79
2019-04-01T18:49:17.296Z,8.65
2019-04-01T18:51:46.337Z,8.46
2019-04-01T18:54:14.984Z,8.38
2019-04-01T18:56:43.919Z,8.30
2019-04-01T18:59:12.619Z,8.32
2019-04-01T19:01:41.331Z,8.25
2019-04-01T19:04:10.079Z,8.24
2019-04-01T19:06:38.991Z,8.27
2019-04-01T19:09:09.814Z,8.25
2019-04-01T19:11:39.598Z,8.17
2019-04-01T19:14:08.466Z,8.15
2019-04-01T19:16:37.426Z,8.15
2019-04-01T19:19:06.125Z,8.29
2019-04-01T19:21:35.037Z,8.39
2019-04-01T19:24:06.610Z,8.25
2019-04-01T19:26:34.273Z,8.15
2019-04-01T19:29:03.064Z,8.25
2019-04-01T19:31:32.005Z,8.32
2019-04-01T19:34:00.689Z,8.19
2019-04-01T19:36:30.146Z,8.15
2019-04-01T19:38:59.432Z,8.08
2019-04-01T19:41:28.373Z,8.22
2019-04-01T19:43:57.062Z,8.10
2019-04-01T19:46:26.010Z,8.12
2019-04-01T19:48:54.960Z,8.14
2019-04-01T19:51:23.652Z,7.97
2019-04-01T19:53:53.239Z,7.81
2019-04-01T19:56:22.378Z,7.79
2019-04-01T19:58:51.119Z,7.74
2019-04-01T20:01:20.243Z,7.68
2019-04-01T20:03:48.959Z,7.68
2019-04-01T20:06:18.526Z,7.73
2019-04-01T20:08:49.690Z,7.73
2019-04-01T20:11:18.216Z,7.70
2019-04-01T20:13:46.921Z,7.81
2019-04-01T20:16:15.860Z,7.84
2019-04-01T20:18:44.561Z,7.89
2019-04-01T20:21:13.569Z,7.92
2019-04-01T20:23:42.335Z,7.93
2019-04-01T20:26:11.019Z,7.90
2019-04-01T20:28:39.999Z,7.86
2019-04-01T20:31:08.694Z,7.81
2019-04-01T20:33:37.422Z,7.69
2019-04-01T20:36:06.374Z,7.59
2019-04-01T20:38:35.096Z,7.52
2019-04-01T20:41:03.852Z,7.53
2019-04-01T20:43:32.575Z,7.61
2019-04-01T20:46:01.268Z,7.53
2019-04-01T20:48:29.954Z,7.57
2019-04-01T20:50:58.638Z,7.60
2019-04-01T20:53:27.568Z,7.66
2019-04-01T20:55:56.246Z,7.54
2019-04-01T20:58:24.940Z,7.37
2019-04-01T21:00:53.703Z,7.35
2019-04-01T21:03:22.407Z,7.24
2019-04-01T21:05:51.151Z,7.18
2019-04-01T21:08:19.820Z,7.08
2019-04-01T21:10:48.505Z,7.06
2019-04-01T21:13:17.201Z,7.06
2019-04-01T21:15:48.312Z,6.97
2019-04-01T21:18:17.222Z,6.92
2019-04-01T21:20:45.942Z,6.94
2019-04-01T21:23:14.973Z,6.99
2019-04-01T21:25:43.713Z,7.11
2019-04-01T21:28:12.484Z,7.16
2019-04-01T21:30:41.181Z,7.18
2019-04-01T21:33:10.012Z,7.00
2019-04-01T21:35:38.967Z,6.91
2019-04-01T21:38:07.908Z,6.83
2019-04-01T21:40:36.606Z,6.81
2019-04-01T21:43:05.843Z,6.75
2019-04-01T21:45:34.881Z,6.71
2019-04-01T21:48:06.417Z,6.63
2019-04-01T21:50:35.136Z,6.52
2019-04-01T21:53:06.754Z,6.47
2019-04-01T21:55:35.457Z,6.49
2019-04-01T21:58:04.485Z,6.48
2019-04-01T22:00:53.181Z,6.41
2019-04-01T22:03:21.849Z,6.44
2019-04-01T22:05:50.614Z,6.39
2019-04-01T22:08:19.303Z,6.33
2019-04-01T22:10:48.179Z,6.27
2019-04-01T22:13:17.098Z,6.28
2019-04-01T22:15:46.195Z,6.28
2019-04-01T22:18:14.939Z,6.28
2019-04-01T22:20:44.436Z,6.24
2019-04-01T22:23:13.102Z,6.37
2019-04-01T22:25:42.335Z,6.31
2019-04-01T22:28:11.025Z,6.30
2019-04-01T22:30:39.955Z,6.24
2019-04-01T22:33:08.722Z,6.22
2019-04-01T22:35:38.957Z,6.18
2019-04-01T22:38:07.915Z,6.11
2019-04-01T22:40:36.771Z,6.10
2019-04-01T22:43:05.554Z,6.08
2019-04-01T22:45:34.331Z,6.07
2019-04-01T22:48:02.998Z,6.00
2019-04-01T22:50:31.690Z,5.95
2019-04-01T22:53:00.363Z,5.94
2019-04-01T22:55:29.066Z,5.91
2019-04-01T22:57:57.783Z,5.90
2019-04-01T23:00:26.623Z,5.83
2019-04-01T23:02:55.531Z,5.84
2019-04-01T23:05:24.232Z,5.77
2019-04-01T23:07:53.140Z,5.73
2019-04-01T23:10:21.814Z,5.70
2019-04-01T23:12:51.135Z,5.69
2019-04-01T23:15:20.190Z,5.61
2019-04-01T23:17:49.108Z,5.58
2019-04-01T23:20:18.024Z,5.56
2019-04-01T23:22:46.953Z,5.53
2019-04-01T23:25:15.884Z,5.55
2019-04-01T23:27:44.665Z,5.51
2019-04-01T23:30:13.684Z,5.48
2019-04-01T23:32:42.645Z,5.45
2019-04-01T23:35:14.400Z,5.45
2019-04-01T23:38:00.279Z,5.48
2019-04-01T23:40:29.243Z,5.52
2019-04-01T23:42:58.175Z,5.51
2019-04-01T23:45:27.100Z,5.51
2019-04-01T23:47:55.774Z,5.51
2019-04-01T23:50:25.190Z,5.45
2019-04-01T23:52:53.858Z,5.41
2019-04-01T23:55:22.542Z,5.43
2019-04-01T23:57:51.239Z,5.37
